createdAt,value
2018-07-11T00:01:11.657Z,1081.70
2018-07-11T00:03:57.618Z,1104.67
2018-07-11T04:59:47.901Z,776.30
2018-07-11T05:02:28.887Z,684.30
2018-07-11T05:05:09.106Z,770.97
2018-07-11T05:07:57.963Z,743.40
2018-07-11T05:10:42.424Z,705.60
2018-07-11T05:13:25.078Z,667.70
2018-07-11T05:16:12.119Z,650.80
2018-07-11T05:18:52.463Z,621.37
2018-07-11T05:21:31.420Z,611.40
2018-07-11T05:24:11.178Z,623.33
2018-07-11T05:26:51.478Z,630.13
2018-07-11T05:29:40.818Z,631.50
2018-07-11T05:32:24.798Z,659.57
2018-07-11T05:35:09.661Z,532.50
2018-07-11T05:37:52.324Z,547.70
2018-07-11T05:40:35.821Z,598.77
2018-07-11T05:43:17.418Z,566.27
2018-07-11T05:45:58.320Z,477.10
2018-07-11T05:48:46.097Z,596.23
2018-07-11T05:51:27.506Z,629.47
2018-07-11T05:54:13.843Z,677.93
2018-07-11T05:56:56.340Z,593.13
2018-07-11T05:59:39.365Z,597.73
2018-07-11T06:02:27.522Z,633.03
2018-07-11T06:05:13.762Z,591.53
2018-07-11T06:07:53.178Z,627.37
2018-07-11T06:10:35.802Z,578.07
2018-07-11T06:13:20.920Z,687.87
2018-07-11T06:16:09.677Z,589.10
2018-07-11T06:18:50.025Z,650.60
2018-07-11T06:21:41.438Z,687.07
2018-07-11T06:24:27.759Z,539.70
2018-07-11T06:27:11.622Z,598.67
2018-07-11T06:29:59.538Z,606.00
2018-07-11T06:32:38.601Z,558.70
2018-07-11T06:35:24.044Z,558.53
2018-07-11T06:38:07.274Z,566.80
2018-07-11T06:40:49.081Z,649.47
2018-07-11T06:43:37.244Z,718.93
2018-07-11T06:46:24.354Z,726.47
2018-07-11T06:49:10.102Z,645.77
2018-07-11T06:51:54.885Z,867.63
2018-07-11T06:54:38.320Z,653.97
2018-07-11T06:57:23.977Z,934.90
2018-07-11T07:00:13.362Z,864.30
2018-07-11T07:02:57.178Z,1053.00
2018-07-11T07:05:40.741Z,1247.70
2018-07-11T07:08:23.942Z,1215.97
2018-07-11T07:11:04.243Z,1246.67
2018-07-11T07:13:48.339Z,1230.83
2018-07-11T07:16:32.134Z,841.43
2018-07-11T07:19:23.228Z,1012.80
2018-07-11T07:22:02.473Z,795.27
2018-07-11T07:24:48.119Z,1231.47
2018-07-11T07:27:28.617Z,626.37
2018-07-11T07:30:12.340Z,602.77
2018-07-11T07:32:56.478Z,392.60
2018-07-11T07:35:38.323Z,387.07
2018-07-11T07:38:20.021Z,867.07
2018-07-11T07:41:00.602Z,744.37
2018-07-11T07:43:50.774Z,567.67
2018-07-11T07:46:31.785Z,1215.50
2018-07-11T07:49:19.804Z,590.60
2018-07-11T07:52:07.422Z,391.70
2018-07-11T07:54:50.101Z,1143.00
2018-07-11T07:57:29.706Z,889.30
2018-07-11T08:00:11.900Z,709.07
2018-07-11T08:02:53.100Z,662.47
2018-07-11T08:05:35.800Z,619.23
2018-07-11T08:08:18.761Z,789.87
2018-07-11T08:11:04.521Z,766.67
2018-07-11T08:52:54.843Z,399.17
2018-07-11T08:56:23.264Z,130.67
2018-07-11T08:59:53.859Z,138.57
2018-07-11T09:07:59.627Z,288.83
2018-07-11T09:10:54.414Z,405.27
2018-07-11T09:14:26.780Z,335.17
2018-07-11T09:18:26.277Z,407.80
2018-07-11T09:23:40.756Z,126.10
2018-07-11T09:26:23.278Z,255.00
2018-07-11T09:29:02.440Z,96.43
2018-07-11T09:31:44.781Z,397.10
2018-07-11T09:34:35.559Z,244.47
2018-07-11T09:37:21.707Z,126.27
2018-07-11T09:40:02.541Z,140.13
2018-07-11T09:42:43.009Z,405.70
2018-07-11T09:45:21.827Z,362.70
2018-07-11T09:48:05.480Z,152.60
2018-07-11T09:50:52.058Z,102.70
2018-07-11T09:53:36.079Z,76.90
2018-07-11T09:56:22.660Z,99.90
2018-07-11T09:59:05.833Z,226.27
2018-07-11T10:01:58.525Z,769.13
2018-07-11T10:04:39.902Z,314.97
2018-07-11T10:07:24.241Z,109.67
2018-07-11T10:10:05.763Z,91.47
2018-07-11T10:12:50.818Z,203.43
2018-07-11T10:15:31.068Z,162.93
2018-07-11T10:18:16.583Z,155.30
2018-07-11T17:13:26.891Z,64.17
2018-07-11T17:16:05.034Z,508.47
2018-07-11T22:32:36.440Z,1218.90
2018-07-11T22:35:09.461Z,1229.33
2018-07-11T22:37:43.525Z,1242.00
2018-07-11T22:40:16.266Z,1244.70
2018-07-11T22:42:48.941Z,1203.93
2018-07-11T22:45:23.081Z,1250.27
2018-07-11T22:47:56.869Z,1198.77
2018-07-11T22:50:33.378Z,1194.97
2018-07-11T22:53:06.740Z,1196.70
2018-07-11T22:55:40.205Z,1154.13
